Time;durP1;ratioP1;P1;durP2;ratioP2;P2;SDS_P1;SDS_P2;PMS_P1;PMS_P2;Temp;Humidity;BMP_temperature;BMP_pressure;BME280_temperature;BME280_humidity;BME280_pressure;Samples;Min_cycle;Max_cycle;Signal;HPM_P1;HPM_P2
2022/09/10 00:00:42;;;;;;;1.42;0.63;;;17.70;99.90;;;17.89;100.00;100470.97;5149194;28;20056;-86
2022/09/10 00:03:18;;;;;;;1.48;0.90;;;17.70;99.90;;;17.86;100.00;100475.34;5165892;28;20053;-86
2022/09/10 00:05:52;;;;;;;0.75;0.60;;;17.60;99.90;;;17.85;100.00;100482.38;5149096;28;20462;-86
2022/09/10 00:08:25;;;;;;;1.33;0.73;;;17.60;99.90;;;17.84;100.00;100475.38;5164221;28;20047;-84
2022/09/10 00:10:57;;;;;;;2.33;0.60;;;17.60;99.90;;;17.83;100.00;100478.00;5148868;28;20101;-86
2022/09/10 00:13:30;;;;;;;1.48;0.90;;;17.50;99.90;;;17.81;100.00;100480.66;5164906;28;20481;-85
2022/09/10 00:16:06;;;;;;;1.98;1.10;;;17.60;99.90;;;17.78;100.00;100471.84;5164479;28;20081;-86
2022/09/10 00:18:42;;;;;;;1.83;0.75;;;17.50;99.90;;;17.77;100.00;100478.00;5164705;28;20050;-86
2022/09/10 00:21:19;;;;;;;0.85;0.85;;;17.50;99.90;;;17.76;100.00;100477.13;5180901;28;20042;-85
2022/09/10 00:23:52;;;;;;;0.95;0.82;;;17.50;99.90;;;17.76;100.00;100478.88;5163825;28;20050;-86
2022/09/10 00:26:28;;;;;;;1.17;0.82;;;17.50;99.90;;;17.75;100.00;100479.78;5165184;28;20088;-86
2022/09/10 00:29:02;;;;;;;1.20;0.93;;;17.50;99.90;;;17.76;100.00;100486.78;5185101;28;20045;-85
2022/09/10 00:31:36;;;;;;;1.50;0.82;;;17.50;99.90;;;17.72;100.00;100490.28;5185754;28;20046;-85
2022/09/10 00:34:15;;;;;;;2.05;0.77;;;17.50;99.90;;;17.72;100.00;100490.28;5201150;28;20049;-85
2022/09/10 00:36:52;;;;;;;1.10;0.73;;;17.50;99.90;;;17.73;100.00;100485.03;5200913;28;20046;-85
2022/09/10 00:39:25;;;;;;;1.27;0.82;;;17.50;99.90;;;17.74;100.00;100488.56;5168240;28;20116;-85
2022/09/10 00:41:58;;;;;;;1.75;0.95;;;17.50;99.90;;;17.76;100.00;100477.13;5200731;28;20041;-86
2022/09/10 00:44:58;;;;;;;0.80;0.80;;;17.50;99.90;;;17.74;100.00;100478.91;5184556;28;20517;-86
2022/09/10 00:47:36;;;;;;;1.00;0.77;;;17.50;99.90;;;17.76;100.00;100486.78;5184463;28;20506;-85
2022/09/10 00:50:24;;;;;;;0.63;0.63;;;17.50;99.90;;;17.75;100.00;100485.91;5184409;28;20042;-86
2022/09/10 00:53:01;;;;;;;1.30;0.60;;;17.50;99.90;;;17.74;100.00;100484.16;5184144;28;20221;-86
2022/09/10 00:55:36;;;;;;;1.27;0.70;;;17.50;99.90;;;17.77;100.00;100483.28;5184329;28;20095;-85
2022/09/10 00:58:14;;;;;;;0.90;0.70;;;17.50;99.90;;;17.78;100.00;100479.75;5184232;28;20045;-86
2022/09/10 01:00:47;;;;;;;0.80;0.65;;;17.50;99.90;;;17.79;100.00;100476.25;5184370;28;20048;-86
2022/09/10 01:03:21;;;;;;;1.08;0.70;;;17.50;99.90;;;17.81;100.00;100485.94;5184096;28;20049;-86
2022/09/10 01:05:56;;;;;;;1.17;1.10;;;17.50;99.90;;;17.83;100.00;100488.56;5183948;28;20065;-85
2022/09/10 01:08:30;;;;;;;1.85;0.80;;;17.50;99.90;;;17.83;100.00;100489.44;5168035;28;20514;-85
2022/09/10 01:11:17;;;;;;;1.10;0.73;;;17.50;99.90;;;17.84;100.00;100485.03;5167898;28;20068;-86
2022/09/10 01:14:12;;;;;;;2.85;0.73;;;17.60;99.90;;;17.87;100.00;100485.06;5185305;28;20104;-84
2022/09/10 01:16:57;;;;;;;1.15;0.60;;;17.60;99.90;;;17.88;100.00;100486.81;5200407;28;20046;-85
2022/09/10 01:20:10;;;;;;;1.50;0.82;;;17.60;99.90;;;17.92;100.00;100480.63;5168191;28;20057;-86
2022/09/10 01:23:12;;;;;;;;;;;17.60;99.90;;;17.88;100.00;100481.53;5167855;28;20045;-84
2022/09/10 01:25:58;;;;;;;1.85;0.70;;;17.60;99.90;;;17.86;100.00;100480.63;5184149;28;19921;-85
2022/09/10 01:28:39;;;;;;;1.25;0.70;;;17.60;99.90;;;17.87;100.00;100482.41;5200421;28;20048;-87
2022/09/10 01:31:20;;;;;;;1.73;0.70;;;17.60;99.90;;;17.87;100.00;100480.66;5184418;28;20049;-85
2022/09/10 01:34:01;;;;;;;1.60;0.52;;;17.60;99.90;;;17.89;100.00;100481.53;5200463;28;20038;-85
2022/09/10 01:36:39;;;;;;;1.17;0.63;;;17.60;99.90;;;17.88;100.00;100477.13;5168009;28;20049;-84
2022/09/10 01:39:12;;;;;;;1.70;0.70;;;17.60;99.90;;;17.88;100.00;100478.91;5184998;28;20038;-86
2022/09/10 01:41:47;;;;;;;0.57;0.57;;;17.60;99.90;;;17.88;100.00;100479.78;5200196;28;20468;-85
2022/09/10 01:45:03;;;;;;;1.55;0.80;;;17.60;99.90;;;17.89;100.00;100483.28;5185460;28;20560;-86
2022/09/10 01:48:23;;;;;;;1.58;0.60;;;17.70;99.90;;;17.88;100.00;100476.25;5187715;28;20050;-85
2022/09/10 01:51:07;;;;;;;;;;;17.70;99.90;;;17.88;100.00;100476.25;5169499;28;20046;-85
2022/09/10 01:54:10;;;;;;;1.05;0.70;;;17.60;99.90;;;17.90;100.00;100469.22;5187689;28;20373;-85
2022/09/10 01:56:58;;;;;;;1.27;0.52;;;17.60;99.90;;;17.92;100.00;100475.34;5187944;28;20042;-86
2022/09/10 01:59:38;;;;;;;2.65;1.10;;;17.60;99.90;;;17.88;100.00;100466.59;5187640;28;20064;-84
2022/09/10 02:02:22;;;;;;;0.80;0.63;;;17.70;99.90;;;17.87;100.00;100471.88;5187776;28;20042;-86
2022/09/10 02:04:55;;;;;;;1.23;0.75;;;17.60;99.90;;;17.86;100.00;100462.19;5171191;28;20100;-85
2022/09/10 02:07:32;;;;;;;2.15;0.80;;;17.60;99.90;;;17.85;100.00;100460.44;5204164;28;20307;-87
2022/09/10 02:10:08;;;;;;;0.70;0.63;;;17.60;99.90;;;17.84;100.00;100463.94;5203873;28;20045;-86
2022/09/10 02:12:47;;;;;;;1.30;0.80;;;17.60;99.90;;;17.85;100.00;100460.44;5171951;28;20046;-85
2022/09/10 02:15:48;;;;;;;1.88;0.80;;;17.60;99.90;;;17.83;100.00;100459.56;5188728;28;20525;-86
2022/09/10 02:18:32;;;;;;;2.20;0.70;;;17.60;99.90;;;17.82;100.00;100460.44;5188686;28;20471;-86
2022/09/10 02:21:06;;;;;;;0.60;0.60;;;17.60;99.90;;;17.85;100.00;100457.78;5187549;28;20046;-85
2022/09/10 02:23:44;;;;;;;1.35;0.55;;;17.60;99.90;;;17.86;100.00;100462.19;5187003;28;20048;-86
2022/09/10 02:26:20;;;;;;;1.38;0.50;;;17.60;99.90;;;17.89;100.00;100456.91;5187132;28;20046;-87
2022/09/10 02:28:54;;;;;;;0.88;0.50;;;17.60;99.90;;;17.90;100.00;100456.03;5187126;28;20053;-86
2022/09/10 02:31:28;;;;;;;1.63;0.50;;;17.60;99.90;;;17.91;100.00;100452.50;5203593;28;20052;-85
2022/09/10 02:34:03;;;;;;;1.38;0.50;;;17.60;99.90;;;17.94;100.00;100463.06;5202650;28;20055;-85
2022/09/10 02:36:37;;;;;;;1.55;0.60;;;17.60;99.90;;;17.94;100.00;100459.56;5186764;28;20137;-86
2022/09/10 02:39:10;;;;;;;1.27;0.50;;;17.70;99.90;;;17.93;100.00;100463.06;5188155;28;20041;-87
2022/09/10 02:41:42;;;;;;;0.98;0.63;;;17.70;99.90;;;17.93;100.00;100460.41;5186839;28;20058;-87
2022/09/10 02:44:15;;;;;;;1.20;0.70;;;17.60;99.90;;;17.93;100.00;100457.78;5186590;28;20142;-86
2022/09/10 02:46:48;;;;;;;0.50;0.43;;;17.70;99.90;;;17.95;100.00;100461.31;5186753;28;20528;-87
2022/09/10 02:49:24;;;;;;;1.27;0.60;;;17.70;99.90;;;17.95;100.00;100456.91;5154752;28;20088;-86
2022/09/10 02:51:57;;;;;;;0.63;0.57;;;17.70;99.90;;;17.98;100.00;100461.31;5170711;28;20053;-85
2022/09/10 02:54:30;;;;;;;0.70;0.60;;;17.70;99.90;;;17.97;100.00;100457.78;5169928;28;20050;-86
2022/09/10 02:57:03;;;;;;;0.85;0.60;;;17.70;99.90;;;17.96;100.00;100461.31;5186750;28;20042;-85
2022/09/10 02:59:36;;;;;;;0.85;0.60;;;17.70;99.90;;;17.98;100.00;100467.44;5203183;28;20054;-86
2022/09/10 03:02:10;;;;;;;0.80;0.80;;;17.70;99.90;;;17.95;100.00;100467.47;5154238;28;20049;-86
2022/09/10 03:04:45;;;;;;;1.08;0.63;;;17.70;99.90;;;17.93;100.00;100455.13;5186977;28;20041;-88
2022/09/10 03:07:19;;;;;;;1.13;0.80;;;17.70;99.90;;;17.90;100.00;100459.53;5169841;28;20052;-85
2022/09/10 03:09:52;;;;;;;1.10;0.77;;;17.60;99.90;;;17.90;100.00;100469.22;5154200;28;20120;-85
2022/09/10 03:12:25;;;;;;;1.95;0.90;;;17.60;99.90;;;17.89;100.00;100463.06;5170083;28;20100;-86
2022/09/10 03:15:00;;;;;;;2.25;0.93;;;17.60;99.90;;;17.88;100.00;100452.53;5186298;28;20224;-85
2022/09/10 03:17:34;;;;;;;2.53;0.90;;;17.60;99.90;;;17.90;100.00;100458.66;5186514;28;20042;-85
2022/09/10 03:20:11;;;;;;;2.30;0.98;;;17.70;99.90;;;17.86;100.00;100459.53;5187627;28;20042;-86
2022/09/10 03:22:43;;;;;;;3.50;1.00;;;17.60;99.90;;;17.86;100.00;100462.19;5169767;28;20141;-85
2022/09/10 03:25:21;;;;;;;1.42;0.82;;;17.60;99.90;;;17.88;100.00;100455.16;5185968;28;20054;-86
2022/09/10 03:27:54;;;;;;;;;;;17.60;99.90;;;17.87;100.00;100464.84;5202809;28;20049;-85
2022/09/10 03:30:27;;;;;;;5.55;1.10;;;17.60;99.90;;;17.90;100.00;100459.53;5169794;28;19925;-85
2022/09/10 03:32:59;;;;;;;1.88;0.80;;;17.70;99.90;;;17.89;100.00;100463.06;5154201;28;20034;-86
2022/09/10 03:35:34;;;;;;;2.50;0.90;;;17.60;99.90;;;17.90;100.00;100458.66;5202698;28;20465;-86
2022/09/10 03:38:10;;;;;;;1.55;0.95;;;17.60;99.90;;;17.89;100.00;100451.66;5170520;28;20050;-86
2022/09/10 03:40:44;;;;;;;0.82;0.70;;;17.60;99.90;;;17.89;100.00;100456.91;5189486;28;20070;-85
2022/09/10 03:43:18;;;;;;;0.85;0.60;;;17.60;99.90;;;17.89;100.00;100452.53;5189087;28;20042;-86
2022/09/10 03:45:52;;;;;;;1.23;0.65;;;17.60;99.90;;;17.88;100.00;100455.16;5179606;28;20107;-86
2022/09/10 03:48:25;;;;;;;0.95;0.77;;;17.60;99.90;;;17.88;100.00;100466.59;5188693;28;20050;-86
2022/09/10 03:50:59;;;;;;;0.70;0.63;;;17.60;99.90;;;17.88;100.00;100461.31;5205087;28;20050;-86
2022/09/10 03:53:33;;;;;;;2.72;0.63;;;17.60;99.90;;;17.87;100.00;100453.41;5204126;28;20482;-86
2022/09/10 03:56:07;;;;;;;0.95;0.63;;;17.60;99.90;;;17.85;100.00;100457.78;5186986;28;20042;-86
2022/09/10 03:58:41;;;;;;;0.90;0.60;;;17.60;99.90;;;17.84;100.00;100458.66;5185803;28;20077;-87
2022/09/10 04:01:15;;;;;;;0.82;0.60;;;17.60;99.90;;;17.84;100.00;100454.28;5202560;28;20481;-85
2022/09/10 04:03:57;;;;;;;0.75;0.57;;;17.60;99.90;;;17.84;100.00;100454.28;5169887;28;20104;-86
2022/09/10 04:06:33;;;;;;;0.50;0.50;;;17.60;99.90;;;17.85;100.00;100460.44;5201110;28;20477;-84
2022/09/10 04:09:08;;;;;;;0.70;0.70;;;17.60;99.90;;;17.87;100.00;100463.97;5185319;28;20050;-85
2022/09/10 04:11:41;;;;;;;2.33;0.95;;;17.60;99.90;;;17.86;100.00;100467.44;5153491;28;20053;-85
2022/09/10 04:14:14;;;;;;;1.83;0.65;;;17.60;99.90;;;17.85;100.00;100468.34;5185277;28;20042;-85
2022/09/10 04:16:48;;;;;;;0.85;0.60;;;17.60;99.90;;;17.85;100.00;100470.97;5201585;28;20518;-87
2022/09/10 04:19:26;;;;;;;1.42;0.77;;;17.60;99.90;;;17.86;100.00;100463.06;5184973;28;20050;-86
2022/09/10 04:22:01;;;;;;;0.52;0.52;;;17.60;99.90;;;17.84;100.00;100458.66;5153489;28;20418;-85
2022/09/10 04:24:35;;;;;;;0.98;0.65;;;17.60;99.90;;;17.86;100.00;100460.41;5201239;28;20046;-85
2022/09/10 04:27:09;;;;;;;1.17;0.68;;;17.60;99.90;;;17.86;100.00;100468.31;5184757;28;20045;-86
2022/09/10 04:29:43;;;;;;;1.58;0.80;;;17.60;99.90;;;17.86;100.00;100468.31;5184794;28;20085;-85
2022/09/10 04:32:17;;;;;;;1.67;0.70;;;17.60;99.90;;;17.86;100.00;100467.44;5168924;28;20100;-86
2022/09/10 04:34:51;;;;;;;1.27;0.68;;;17.60;99.90;;;17.86;100.00;100467.44;5186129;28;20053;-86
2022/09/10 04:37:26;;;;;;;2.03;0.77;;;17.60;99.90;;;17.84;100.00;100469.22;5185992;28;20042;-85
2022/09/10 04:40:00;;;;;;;1.05;0.88;;;17.60;99.90;;;17.83;100.00;100470.09;5184845;28;20042;-86
2022/09/10 04:42:33;;;;;;;2.15;1.13;;;17.60;99.90;;;17.83;100.00;100465.72;5200305;28;20058;-85
2022/09/10 04:45:08;;;;;;;0.80;0.80;;;17.60;99.90;;;17.82;100.00;100465.72;5184846;28;20450;-86
2022/09/10 04:47:45;;;;;;;1.08;0.70;;;17.60;99.90;;;17.82;100.00;100465.72;5200831;28;20152;-86
2022/09/10 04:50:20;;;;;;;1.75;0.57;;;17.60;99.90;;;17.82;100.00;100470.97;5184620;28;20073;-85
2022/09/10 04:53:13;;;;;;;1.60;0.60;;;17.60;99.90;;;17.78;100.00;100471.84;5186171;28;20527;-85
2022/09/10 04:55:50;;;;;;;1.15;0.73;;;17.50;99.90;;;17.80;100.00;100478.00;5200421;28;20141;-85
2022/09/10 04:58:24;;;;;;;0.73;0.70;;;17.50;99.90;;;17.78;100.00;100479.75;5168893;28;20073;-85
2022/09/10 05:00:57;;;;;;;0.55;0.55;;;17.50;99.90;;;17.77;100.00;100483.28;5184285;28;20054;-86
2022/09/10 05:03:30;;;;;;;0.70;0.50;;;17.50;99.90;;;17.77;100.00;100483.28;5184101;28;20038;-86
2022/09/10 05:06:06;;;;;;;0.90;0.70;;;17.50;99.90;;;17.76;100.00;100482.41;5167492;28;20465;-85
2022/09/10 05:08:41;;;;;;;1.27;0.80;;;17.50;99.90;;;17.74;100.00;100478.91;5167866;28;20096;-86
2022/09/10 05:11:17;;;;;;;2.90;0.70;;;17.50;99.90;;;17.73;100.00;100478.88;5184517;28;20090;-85
2022/09/10 05:13:49;;;;;;;1.83;0.63;;;17.50;99.90;;;17.72;100.00;100474.47;5264699;22;20405;-72
2022/09/10 05:16:27;;;;;;;1.00;0.52;;;17.50;99.90;;;17.72;100.00;100471.84;5195741;28;20414;-73
2022/09/10 05:19:02;;;;;;;0.50;0.50;;;17.50;99.90;;;17.72;100.00;100479.75;5201085;28;20506;-72
2022/09/10 05:21:37;;;;;;;1.00;0.73;;;17.50;99.90;;;17.70;100.00;100481.47;5182650;28;20052;-71
2022/09/10 05:24:11;;;;;;;1.25;0.82;;;17.50;99.90;;;17.68;100.00;100475.34;5183099;28;20056;-71
2022/09/10 05:26:45;;;;;;;0.60;0.60;;;17.50;99.90;;;17.68;100.00;100485.88;5182811;28;20053;-72
2022/09/10 05:29:18;;;;;;;2.42;0.73;;;17.50;99.90;;;17.64;100.00;100485.00;5182920;28;20064;-73
2022/09/10 05:31:50;;;;;;;1.92;0.93;;;17.40;99.90;;;17.62;100.00;100479.72;5182890;28;20061;-73
2022/09/10 05:34:24;;;;;;;1.20;0.70;;;17.40;99.90;;;17.66;100.00;100480.59;5184335;28;20517;-72
2022/09/10 05:36:58;;;;;;;1.30;1.20;;;17.40;99.90;;;17.67;100.00;100486.75;5182668;28;20045;-72
2022/09/10 05:39:31;;;;;;;1.33;0.98;;;17.40;99.90;;;17.73;100.00;100486.78;5182847;28;20069;-72
2022/09/10 05:42:04;;;;;;;1.08;0.90;;;17.50;99.90;;;17.73;100.00;100489.41;5182824;28;20052;-72
2022/09/10 05:44:36;;;;;;;1.63;0.80;;;17.50;99.90;;;17.75;100.00;100495.59;5182673;28;20529;-73
2022/09/10 05:47:09;;;;;;;1.88;0.90;;;17.50;99.90;;;17.77;100.00;100489.44;5182501;28;20056;-70
2022/09/10 05:49:41;;;;;;;2.40;0.90;;;17.50;99.90;;;17.78;100.00;100495.56;5182564;28;20391;-71
2022/09/10 05:52:14;;;;;;;0.82;0.57;;;17.60;99.90;;;17.81;100.00;100501.75;5183272;28;20056;-71
2022/09/10 05:54:47;;;;;;;1.67;0.70;;;17.50;99.90;;;17.82;100.00;100498.22;5182871;28;20045;-71
2022/09/10 05:57:19;;;;;;;3.78;0.65;;;17.60;99.90;;;17.86;100.00;100496.44;5182605;28;20045;-72
2022/09/10 05:59:52;;;;;;;1.02;0.70;;;17.60;99.90;;;17.87;100.00;100500.88;5182745;28;20510;-70
2022/09/10 06:02:25;;;;;;;1.90;0.80;;;17.60;99.90;;;17.88;100.00;100503.50;5182900;28;20073;-71
2022/09/10 06:04:59;;;;;;;1.73;0.90;;;17.60;99.90;;;17.91;100.00;100499.97;5182069;28;20238;-62
2022/09/10 06:07:32;;;;;;;1.20;0.55;;;17.60;99.90;;;17.96;100.00;100499.97;5181607;28;20045;-62
2022/09/10 06:10:07;;;;;;;1.15;0.70;;;17.70;99.90;;;18.00;100.00;100499.13;5183503;28;20498;-61
2022/09/10 06:12:50;;;;;;;2.00;1.10;;;17.70;99.90;;;18.03;100.00;100502.63;5183411;28;20133;-63
2022/09/10 06:15:23;;;;;;;0.73;0.60;;;17.80;99.90;;;18.11;100.00;100503.47;5182018;28;20044;-62
2022/09/10 06:17:58;;;;;;;1.88;0.60;;;17.80;99.90;;;18.20;100.00;100505.25;5181827;28;20041;-62
2022/09/10 06:20:30;;;;;;;1.42;0.70;;;17.90;99.90;;;18.25;100.00;100513.16;5181902;28;20053;-63
2022/09/10 06:23:03;;;;;;;1.48;0.70;;;17.90;99.90;;;18.29;100.00;100512.28;5182059;28;20060;-62
2022/09/10 06:25:37;;;;;;;2.03;0.80;;;18.00;99.90;;;18.31;100.00;100510.50;5181844;28;20042;-61
2022/09/10 06:28:10;;;;;;;1.33;0.70;;;18.00;99.90;;;18.32;100.00;100522.81;5181702;28;20057;-61
2022/09/10 06:30:43;;;;;;;1.85;0.73;;;18.00;99.90;;;18.31;100.00;100521.06;5184248;28;20046;-63
2022/09/10 06:33:15;;;;;;;1.42;0.60;;;18.00;99.90;;;18.33;100.00;100521.97;5185719;28;20054;-63
2022/09/10 06:35:53;;;;;;;0.73;0.50;;;18.00;99.90;;;18.33;100.00;100522.84;5185079;28;20054;-62
2022/09/10 06:38:30;;;;;;;0.90;0.70;;;18.00;99.90;;;18.30;100.00;100525.47;5185738;28;20275;-62
2022/09/10 06:41:08;;;;;;;0.90;0.73;;;18.10;99.90;;;18.29;100.00;100525.47;5186836;28;20406;-62
2022/09/10 06:43:49;;;;;;;1.45;0.73;;;18.10;99.90;;;18.30;100.00;100532.50;5185759;28;20132;-63
2022/09/10 06:46:29;;;;;;;1.65;1.15;;;18.00;99.90;;;18.33;100.00;100532.50;5186592;28;20042;-62
2022/09/10 06:49:11;;;;;;;1.05;0.70;;;18.00;99.90;;;18.39;100.00;100537.78;5185103;28;20049;-62
2022/09/10 06:51:45;;;;;;;1.65;0.65;;;18.10;99.90;;;18.41;100.00;100534.25;5185328;28;20073;-63
2022/09/10 06:54:19;;;;;;;1.52;0.68;;;18.10;99.90;;;18.41;100.00;100536.88;5185476;28;20100;-62
2022/09/10 06:56:53;;;;;;;1.10;0.63;;;18.10;99.90;;;18.41;100.00;100536.00;5185046;28;20455;-61
2022/09/10 06:59:25;;;;;;;1.10;0.60;;;18.10;99.90;;;18.40;100.00;100544.81;5184998;28;20060;-62
2022/09/10 07:01:57;;;;;;;0.65;0.65;;;18.10;99.90;;;18.39;100.00;100551.84;5185207;28;20145;-62
2022/09/10 07:04:29;;;;;;;0.95;0.73;;;18.10;99.90;;;18.39;100.00;100551.84;5186349;28;20049;-62
2022/09/10 07:07:03;;;;;;;1.10;0.85;;;18.10;99.90;;;18.44;100.00;100551.81;5185225;28;20057;-59
2022/09/10 07:09:36;;;;;;;2.10;0.52;;;18.20;99.90;;;18.67;100.00;100552.72;5185113;28;20037;-58
2022/09/10 07:12:10;;;;;;;0.55;0.50;;;18.40;99.90;;;18.94;100.00;100557.03;5186441;28;20052;-59
2022/09/10 07:14:45;;;;;;;1.90;0.63;;;18.70;99.90;;;19.09;100.00;100558.75;5184873;28;20045;-59
2022/09/10 07:17:19;;;;;;;0.73;0.55;;;18.80;99.90;;;19.08;100.00;100561.41;5184706;28;20053;-60
2022/09/10 07:19:52;;;;;;;0.60;0.50;;;18.80;99.90;;;19.03;100.00;100563.16;5184721;28;20462;-60
2022/09/10 07:22:34;;;;;;;1.38;0.50;;;18.80;99.90;;;18.96;100.00;100567.59;5184764;28;20050;-59
2022/09/10 07:25:12;;;;;;;1.27;0.50;;;18.70;99.90;;;18.94;100.00;100569.38;5184782;28;20037;-60
2022/09/10 07:28:11;;;;;;;1.88;0.60;;;18.70;99.90;;;18.89;100.00;100571.13;5184496;28;20060;-59
2022/09/10 07:30:46;;;;;;;0.52;0.52;;;18.60;99.90;;;18.85;100.00;100569.41;5184469;28;20080;-59
2022/09/10 07:33:21;;;;;;;1.25;0.50;;;18.60;99.90;;;18.85;100.00;100574.69;5184570;28;20072;-60
2022/09/10 07:35:53;;;;;;;0.82;0.55;;;18.60;99.90;;;18.84;100.00;100576.41;5184198;28;20042;-61
2022/09/10 07:38:27;;;;;;;0.50;0.40;;;18.50;99.90;;;18.84;100.00;100572.91;5185934;28;20115;-59
2022/09/10 07:41:00;;;;;;;;;;;18.50;99.90;;;18.83;100.00;100576.44;5183946;28;20149;-59
2022/09/10 07:43:34;;;;;;;0.50;0.50;;;18.50;99.90;;;18.89;100.00;100573.78;5184301;28;19926;-59
2022/09/10 07:46:06;;;;;;;0.65;0.40;;;18.60;99.90;;;18.97;100.00;100579.91;5184029;28;20061;-60
2022/09/10 07:48:41;;;;;;;1.65;0.50;;;18.60;99.90;;;19.10;100.00;100576.34;5184136;28;20050;-60
2022/09/10 07:51:18;;;;;;;1.58;0.60;;;18.70;99.90;;;19.22;100.00;100575.44;5184130;28;20053;-60
2022/09/10 07:53:54;;;;;;;0.85;0.60;;;18.80;99.90;;;19.31;100.00;100579.81;5184104;28;20052;-60
2022/09/10 07:56:30;;;;;;;1.65;0.50;;;18.80;99.90;;;19.42;100.00;100570.06;5183941;28;20042;-59
2022/09/10 07:59:04;;;;;;;1.90;0.38;;;19.00;99.90;;;19.51;100.00;100583.25;5184200;28;20522;-60
2022/09/10 08:01:43;;;;;;;1.50;0.40;;;19.10;99.90;;;19.61;100.00;100587.59;5184067;28;20057;-60
2022/09/10 08:04:16;;;;;;;0.63;0.47;;;19.20;99.90;;;19.68;100.00;100585.81;5185059;28;20438;-59
2022/09/10 08:06:48;;;;;;;1.98;0.80;;;19.20;99.90;;;19.72;100.00;100587.56;5183758;28;20081;-60
2022/09/10 08:09:21;;;;;;;1.90;0.70;;;19.20;99.90;;;19.77;100.00;100581.34;5183890;28;20054;-58
2022/09/10 08:11:58;;;;;;;0.77;0.50;;;19.30;99.90;;;19.89;100.00;100582.19;5183811;28;20060;-57
2022/09/10 08:14:32;;;;;;;0.80;0.70;;;19.40;99.90;;;20.12;100.00;100585.53;5183574;28;20041;-58
2022/09/10 08:17:05;;;;;;;;;;;19.50;99.90;;;20.32;100.00;100580.94;5183925;28;20136;-59
2022/09/10 08:19:42;;;;;;;0.70;0.70;;;19.70;99.90;;;20.45;100.00;100586.16;5183811;28;20004;-59
2022/09/10 08:22:15;;;;;;;1.48;0.75;;;19.80;99.90;;;20.57;100.00;100591.34;5183752;28;20112;-59
2022/09/10 08:24:55;;;;;;;0.40;0.40;;;19.90;99.90;;;20.69;100.00;100582.41;5183559;28;20042;-60
2022/09/10 08:27:30;;;;;;;1.85;0.68;;;20.00;99.90;;;20.73;100.00;100584.13;5183265;28;20515;-59
2022/09/10 08:30:05;;;;;;;1.27;0.75;;;20.10;99.90;;;20.70;100.00;100582.41;5183364;28;20529;-59
2022/09/10 08:32:37;;;;;;;0.77;0.60;;;20.10;99.90;;;20.67;100.00;100585.09;5183373;28;20045;-59
2022/09/10 08:35:10;;;;;;;0.60;0.52;;;20.10;99.90;;;20.64;100.00;100597.47;5183442;28;20046;-59
2022/09/10 08:37:42;;;;;;;0.70;0.70;;;20.10;99.90;;;20.61;100.00;100587.78;5184484;28;20046;-59
2022/09/10 08:40:15;;;;;;;0.60;0.60;;;20.10;99.90;;;20.58;100.00;100590.47;5183348;28;20038;-59
2022/09/10 08:42:49;;;;;;;2.13;0.47;;;20.10;99.90;;;20.49;100.00;100593.19;5183441;28;20053;-59
2022/09/10 08:45:31;;;;;;;1.17;0.50;;;20.00;99.90;;;20.38;100.00;100595.91;5183145;28;20056;-59
2022/09/10 08:48:08;;;;;;;1.38;0.70;;;19.90;99.90;;;20.27;100.00;100593.31;5182983;28;20080;-60
2022/09/10 08:50:49;;;;;;;0.38;0.38;;;19.90;99.90;;;20.20;100.00;100590.75;5183278;28;20073;-59
2022/09/10 08:53:31;;;;;;;0.50;0.50;;;19.80;99.90;;;20.14;100.00;100590.78;5183004;28;20069;-59
2022/09/10 08:56:10;;;;;;;1.25;0.40;;;19.70;99.90;;;20.14;100.00;100596.09;5182697;28;20042;-59
2022/09/10 08:58:45;;;;;;;1.75;0.70;;;19.70;99.90;;;20.14;100.00;100596.97;5183251;28;20417;-59
2022/09/10 09:01:30;;;;;;;0.52;0.52;;;19.70;99.90;;;20.11;100.00;100607.59;5183159;28;20049;-59
2022/09/10 09:04:15;;;;;;;1.45;0.77;;;19.70;99.90;;;20.10;100.00;100604.97;5184435;28;20046;-59
2022/09/10 09:06:53;;;;;;;1.33;0.70;;;19.70;99.90;;;20.06;100.00;100609.38;5182507;28;20072;-59
2022/09/10 09:09:26;;;;;;;1.00;0.75;;;19.70;99.90;;;20.03;100.00;100606.75;5184038;28;20046;-59
2022/09/10 09:12:07;;;;;;;0.85;0.73;;;19.70;99.90;;;19.99;100.00;100607.66;5184293;28;20506;-58
2022/09/10 09:14:56;;;;;;;0.70;0.70;;;19.60;99.90;;;19.96;100.00;100613.00;5182840;28;20054;-58
2022/09/10 09:17:54;;;;;;;1.05;0.70;;;19.60;99.90;;;19.90;100.00;100607.75;5182459;28;20529;-58
2022/09/10 09:20:45;;;;;;;0.93;0.80;;;19.50;99.90;;;19.85;100.00;100613.03;5184104;28;20121;-58
2022/09/10 09:23:22;;;;;;;0.90;0.90;;;19.50;99.90;;;19.86;100.00;100608.63;5182547;28;20060;-58
2022/09/10 09:26:02;;;;;;;1.50;0.88;;;19.50;99.90;;;19.85;100.00;100609.53;5182430;28;20052;-57
2022/09/10 09:28:42;;;;;;;1.35;0.93;;;19.50;99.90;;;19.88;100.00;100604.19;5182547;28;20057;-58
2022/09/10 09:31:20;;;;;;;2.25;0.90;;;19.50;99.90;;;19.91;100.00;100610.38;5182378;28;20096;-59
2022/09/10 09:34:01;;;;;;;2.13;0.90;;;19.50;99.90;;;19.99;100.00;100613.84;5182467;28;20161;-60
2022/09/10 09:36:41;;;;;;;1.85;0.90;;;19.50;99.90;;;20.08;100.00;100610.22;5182426;28;20049;-59
2022/09/10 09:39:19;;;;;;;4.03;1.20;;;19.60;99.90;;;20.17;100.00;100618.13;5182613;28;20046;-58
2022/09/10 09:42:02;;;;;;;2.70;0.80;;;19.70;99.90;;;20.27;100.00;100611.84;5182365;28;20054;-59
2022/09/10 09:44:42;;;;;;;1.15;0.90;;;19.70;99.90;;;20.39;100.00;100607.38;5183857;28;20042;-60
2022/09/10 09:47:14;;;;;;;2.30;0.80;;;19.80;99.90;;;20.46;100.00;100609.09;5183481;28;20049;-59
2022/09/10 09:49:50;;;;;;;2.40;1.20;;;19.90;99.90;;;20.49;100.00;100619.69;5182321;28;20456;-59
2022/09/10 09:52:24;;;;;;;1.67;1.10;;;20.00;99.90;;;20.46;100.00;100609.09;5183717;28;20066;-58
2022/09/10 09:55:01;;;;;;;1.65;0.90;;;20.00;99.90;;;20.42;100.00;100612.66;5183591;28;20046;-58
2022/09/10 09:57:33;;;;;;;1.33;0.98;;;19.90;99.90;;;20.38;100.00;100616.19;5183258;28;20049;-60
2022/09/10 10:00:35;;;;;;;1.85;1.35;;;19.90;99.90;;;20.34;100.00;100610.03;5183916;28;20410;-60
2022/09/10 10:03:16;;;;;;;1.48;0.90;;;19.90;99.90;;;20.29;100.00;100606.56;5183616;28;20042;-60
2022/09/10 10:05:49;;;;;;;1.02;0.93;;;19.90;99.90;;;20.27;100.00;100613.63;5185727;28;20504;-58
2022/09/10 10:08:30;;;;;;;1.58;1.05;;;19.80;99.90;;;20.26;100.00;100612.75;5187587;28;20050;-59
2022/09/10 10:11:02;;;;;;;1.83;0.98;;;19.80;99.90;;;20.24;100.00;100611.91;5187252;28;20049;-59
2022/09/10 10:13:40;;;;;;;2.45;1.08;;;19.80;99.90;;;20.21;100.00;100609.28;5185836;28;20046;-60
2022/09/10 10:16:19;;;;;;;3.50;1.00;;;19.80;99.90;;;20.19;100.00;100610.16;5187067;28;20410;-58
2022/09/10 10:18:51;;;;;;;1.55;0.88;;;19.80;99.90;;;20.15;100.00;100597.84;5187301;28;20495;-59
2022/09/10 10:21:32;;;;;;;1.88;1.10;;;19.70;99.90;;;20.13;100.00;100599.63;5187045;28;20050;-59
2022/09/10 10:24:05;;;;;;;1.05;0.95;;;19.70;99.90;;;20.15;100.00;100596.09;5187143;28;20052;-59
2022/09/10 10:26:38;;;;;;;0.90;0.90;;;19.70;99.90;;;20.17;100.00;100596.94;5186734;28;20045;-59
2022/09/10 10:29:19;;;;;;;1.52;1.00;;;19.70;99.90;;;20.19;100.00;100589.88;5186957;28;20042;-59
2022/09/10 10:31:52;;;;;;;3.13;1.20;;;19.70;99.90;;;20.20;100.00;100596.03;5186692;28;20518;-58
2022/09/10 10:34:53;;;;;;;1.20;1.00;;;19.80;99.90;;;20.21;100.00;100593.41;5187012;28;20104;-59
2022/09/10 10:37:38;;;;;;;1.85;1.20;;;19.80;99.90;;;20.24;100.00;100590.72;5186550;28;20056;-59
2022/09/10 10:40:25;;;;;;;2.60;1.20;;;19.80;99.90;;;20.25;100.00;100591.59;5185477;28;20529;-59
2022/09/10 10:43:10;;;;;;;2.28;1.05;;;19.80;99.90;;;20.22;100.00;100595.16;5185637;28;20135;-59
2022/09/10 10:45:53;;;;;;;2.00;1.05;;;19.80;99.90;;;20.22;100.00;100594.28;5186304;28;20065;-58
2022/09/10 10:48:43;;;;;;;1.20;0.90;;;19.80;99.90;;;20.22;100.00;100600.44;5187273;28;20069;-59